< Typhoon 200713 2007 Season Typhoon 200715 >
Typhoon 200714 (LEKIMA)
General InformationTrack Information on Google MapsDetailed Wind InformationAccess Analytics MapList of All Images || NewsDisaster Info.WeblogTrackbackTyphoon FrontResourceGoogle EarthGE AnimationAtom FeedGeoJSON
Detalied Best Track (Time Zone = UTC)
Year Month Day Hour Lat. Long. Pressure (hPa) Wind (kt) Class Image Chart
2007 9 28 18 17.3 125.0 1000 0 2 Image Chart
2007 9 29 00 16.5 122.1 1000 0 2 Image Chart
2007 9 29 06 16.4 119.8 998 0 2 Image Chart
2007 9 29 12 15.7 118.5 998 0 2 Image Chart
2007 9 29 18 14.9 117.2 996 0 2 Image Chart
2007 9 30 00 14.6 115.8 994 35 3 Image Chart
2007 9 30 06 14.3 114.6 992 40 3 Image Chart
2007 9 30 12 14.2 113.9 992 40 3 Image Chart
2007 9 30 18 14.5 113.3 990 45 3 Image Chart
2007 10 1 00 15.0 113.0 985 50 4 Image Chart
2007 10 1 06 15.4 112.9 980 55 4 Image Chart
2007 10 1 12 15.9 112.7 980 55 4 Image Chart
2007 10 1 18 16.3 112.4 980 55 4 Image Chart
2007 10 2 00 17.1 111.7 975 60 4 Image Chart
2007 10 2 06 17.4 110.7 975 60 4 Image Chart
2007 10 2 12 17.6 109.9 980 55 4 Image Chart
2007 10 2 18 17.6 108.8 980 55 4 Image Chart
2007 10 3 00 17.5 108.1 980 55 4 Image Chart
2007 10 3 06 17.6 107.4 980 55 4 Image Chart
2007 10 3 12 17.9 106.5 980 55 4 Image Chart
2007 10 3 18 17.8 105.1 992 40 3 Image Chart
2007 10 4 00 17.6 104.0 996 35 3 Image Chart
2007 10 4 06 17.5 102.7 1000 0 2 Image Chart
2007 10 4 12 17.2 101.7 1000 0 2 Image Chart
2007 10 4 18 17.5 100.8 1002 0 2 Image Chart
Japan Meteorological Agency Best Track Data | Correction Date : 2007-11-13
< Typhoon 200713 2007 Season Typhoon 200715 >

Help